AFR62RZ EKCH-LFPG
Flight info
| Callsign | AFR62RZ |
|---|---|
| Flight time | 1h 53m |
| Altitude | 36000 |
| Route | NEXEN T503 GIMRU DCT MICOS DCT NVO DCT IDOSA UN857 TOLVU/N0450F370 DCT RAPOR DCT VEDUS |
| Aircraft | A320/M-SDE3FGHIRWY/LB1 |
Departure
| Time | 2026-05-04 09:52 |
|---|---|
| Airport | Copenhagen Kastrup Airport (EKCH) |
Arrival
| Time | 2026-05-04 11:45 |
|---|---|
| Airport | Charles de Gaulle International Airport (LFPG) |
| Time | Latitude | Longitude | Altitude | Speed | Heading |
|---|---|---|---|---|---|
| 2026-05-04 09:11 | 55.62874 | 12.64067 | 21 ft | 0 kts | 11° |
| 2026-05-04 09:42 | 55.62826 | 12.64047 | 21 ft | 2 kts | 45° |
| 2026-05-04 09:43 | 55.62819 | 12.64024 | 21 ft | 2 kts | 81° |
| 2026-05-04 09:43 | 55.62819 | 12.63998 | 21 ft | 2 kts | 107° |
| 2026-05-04 09:43 | 55.62823 | 12.63972 | 21 ft | 2 kts | 103° |
| 2026-05-04 09:43 | 55.62827 | 12.63947 | 21 ft | 2 kts | 105° |
| 2026-05-04 09:44 | 55.62831 | 12.63921 | 21 ft | 2 kts | 104° |
| 2026-05-04 09:44 | 55.62834 | 12.63895 | 22 ft | 2 kts | 104° |
| 2026-05-04 09:44 | 55.62836 | 12.63881 | 22 ft | 0 kts | 104° |
| 2026-05-04 09:47 | 55.62833 | 12.63901 | 21 ft | 3 kts | 113° |
| 2026-05-04 09:49 | 55.62416 | 12.64441 | 21 ft | 12 kts | 152° |
| 2026-05-04 09:49 | 55.62333 | 12.64422 | 21 ft | 13 kts | 196° |
| 2026-05-04 09:49 | 55.62229 | 12.64368 | 22 ft | 16 kts | 199° |
| 2026-05-04 09:51 | 55.61651 | 12.64083 | 22 ft | 12 kts | 193° |
| 2026-05-04 09:51 | 55.61557 | 12.63962 | 23 ft | 30 kts | 222° |
| 2026-05-04 09:51 | 55.61208 | 12.63419 | 23 ft | 101 kts | 222° |
| 2026-05-04 09:51 | 55.60521 | 12.62357 | 30 ft | 157 kts | 224° |
| 2026-05-04 09:52 | 55.59690 | 12.61062 | 555 ft | 162 kts | 226° |
| 2026-05-04 09:52 | 55.58856 | 12.59747 | 1254 ft | 162 kts | 226° |
| 2026-05-04 09:52 | 55.57987 | 12.58403 | 1711 ft | 173 kts | 227° |
| 2026-05-04 09:52 | 55.57052 | 12.56942 | 2081 ft | 189 kts | 227° |
| 2026-05-04 09:53 | 55.55962 | 12.55411 | 2412 ft | 212 kts | 220° |
| 2026-05-04 09:53 | 55.54703 | 12.53958 | 2904 ft | 227 kts | 218° |
| 2026-05-04 09:53 | 55.53357 | 12.52360 | 3339 ft | 243 kts | 219° |
| 2026-05-04 09:53 | 55.51913 | 12.50605 | 3862 ft | 258 kts | 219° |
| 2026-05-04 09:54 | 55.50435 | 12.48810 | 4646 ft | 261 kts | 219° |
| 2026-05-04 09:54 | 55.48950 | 12.47007 | 5491 ft | 262 kts | 219° |
| 2026-05-04 09:54 | 55.47470 | 12.45208 | 6290 ft | 264 kts | 220° |
| 2026-05-04 09:54 | 55.45962 | 12.43369 | 7111 ft | 266 kts | 220° |
| 2026-05-04 09:55 | 55.44440 | 12.41511 | 7962 ft | 268 kts | 220° |
| 2026-05-04 09:55 | 55.42920 | 12.39657 | 8802 ft | 269 kts | 220° |
| 2026-05-04 09:55 | 55.41401 | 12.37807 | 9616 ft | 270 kts | 219° |
| 2026-05-04 09:55 | 55.39860 | 12.35930 | 10385 ft | 273 kts | 219° |
| 2026-05-04 09:56 | 55.38271 | 12.33991 | 10830 ft | 288 kts | 218° |
| 2026-05-04 09:56 | 55.36563 | 12.31909 | 11221 ft | 304 kts | 218° |
| 2026-05-04 09:56 | 55.34794 | 12.29759 | 11584 ft | 319 kts | 218° |
| 2026-05-04 09:56 | 55.32940 | 12.27512 | 12124 ft | 327 kts | 218° |
| 2026-05-04 09:57 | 55.31089 | 12.25275 | 12822 ft | 329 kts | 218° |
| 2026-05-04 09:57 | 55.29214 | 12.23014 | 13512 ft | 331 kts | 218° |
| 2026-05-04 09:57 | 55.27290 | 12.20692 | 14174 ft | 334 kts | 218° |
| 2026-05-04 09:57 | 55.25384 | 12.18392 | 14813 ft | 336 kts | 218° |
| 2026-05-04 09:58 | 55.23477 | 12.16091 | 15430 ft | 338 kts | 218° |
| 2026-05-04 09:58 | 55.21551 | 12.13771 | 15995 ft | 342 kts | 218° |
| 2026-05-04 09:58 | 55.19598 | 12.11400 | 16576 ft | 344 kts | 219° |
| 2026-05-04 10:00 | 55.05855 | 11.93811 | 20318 ft | 358 kts | 220° |
| 2026-05-04 10:00 | 55.03852 | 11.91264 | 20812 ft | 360 kts | 219° |
| 2026-05-04 10:02 | 54.89449 | 11.73045 | 23953 ft | 373 kts | 219° |
| 2026-05-04 10:04 | 54.74493 | 11.54311 | 26511 ft | 386 kts | 220° |
| 2026-05-04 10:04 | 54.72319 | 11.51599 | 26824 ft | 388 kts | 220° |
| 2026-05-04 10:04 | 54.70141 | 11.48888 | 27155 ft | 390 kts | 220° |
| 2026-05-04 10:04 | 54.67930 | 11.46144 | 27467 ft | 391 kts | 220° |
| 2026-05-04 10:05 | 54.65718 | 11.43395 | 27755 ft | 393 kts | 220° |
| 2026-05-04 10:05 | 54.63502 | 11.40645 | 28044 ft | 395 kts | 220° |
| 2026-05-04 10:05 | 54.61261 | 11.37868 | 28325 ft | 397 kts | 220° |
| 2026-05-04 10:05 | 54.59026 | 11.35109 | 28622 ft | 398 kts | 220° |
| 2026-05-04 10:06 | 54.56762 | 11.32317 | 28880 ft | 400 kts | 220° |
| 2026-05-04 10:06 | 54.54486 | 11.29519 | 29133 ft | 402 kts | 220° |
| 2026-05-04 10:06 | 54.52221 | 11.26755 | 29379 ft | 404 kts | 219° |
| 2026-05-04 10:08 | 54.38447 | 11.10051 | 31130 ft | 402 kts | 219° |
| 2026-05-04 10:08 | 54.36170 | 11.07300 | 31428 ft | 401 kts | 220° |
| 2026-05-04 10:08 | 54.33889 | 11.04550 | 31695 ft | 400 kts | 219° |
| 2026-05-04 10:08 | 54.31641 | 11.01829 | 31926 ft | 399 kts | 220° |
| 2026-05-04 10:09 | 54.29429 | 10.98944 | 32197 ft | 397 kts | 223° |
| 2026-05-04 10:09 | 54.27313 | 10.95989 | 32471 ft | 395 kts | 223° |
| 2026-05-04 10:09 | 54.25169 | 10.93017 | 32710 ft | 395 kts | 223° |
| 2026-05-04 10:09 | 54.23060 | 10.90101 | 32992 ft | 393 kts | 222° |
| 2026-05-04 10:10 | 54.20926 | 10.87157 | 33249 ft | 392 kts | 222° |
| 2026-05-04 10:10 | 54.18827 | 10.84260 | 33435 ft | 392 kts | 222° |
| 2026-05-04 10:10 | 54.16717 | 10.81351 | 33635 ft | 392 kts | 222° |
| 2026-05-04 10:10 | 54.14595 | 10.78432 | 33819 ft | 392 kts | 222° |
| 2026-05-04 10:11 | 54.12481 | 10.75519 | 34043 ft | 392 kts | 221° |
| 2026-05-04 10:11 | 54.10366 | 10.72613 | 34269 ft | 390 kts | 221° |
| 2026-05-04 10:11 | 54.08268 | 10.69735 | 34433 ft | 391 kts | 221° |
| 2026-05-04 10:11 | 54.06160 | 10.66845 | 34586 ft | 392 kts | 221° |
| 2026-05-04 10:12 | 54.04030 | 10.63931 | 34716 ft | 392 kts | 221° |
| 2026-05-04 10:12 | 54.01921 | 10.61049 | 34855 ft | 393 kts | 221° |
| 2026-05-04 10:12 | 53.97638 | 10.55203 | 35008 ft | 396 kts | 221° |
| 2026-05-04 10:13 | 53.93359 | 10.49379 | 35212 ft | 397 kts | 221° |
| 2026-05-04 10:13 | 53.89024 | 10.43499 | 35349 ft | 400 kts | 221° |
| 2026-05-04 10:14 | 53.84650 | 10.37579 | 35519 ft | 401 kts | 221° |
| 2026-05-04 10:16 | 53.69191 | 10.16786 | 35951 ft | 409 kts | 221° |
| 2026-05-04 10:16 | 53.66955 | 10.13795 | 35978 ft | 410 kts | 220° |
| 2026-05-04 10:16 | 53.62489 | 10.07833 | 35982 ft | 410 kts | 221° |
| 2026-05-04 10:17 | 53.58020 | 10.01882 | 35990 ft | 411 kts | 220° |
| 2026-05-04 10:19 | 53.40091 | 9.78175 | 35996 ft | 411 kts | 221° |
| 2026-05-04 10:19 | 53.35618 | 9.72299 | 35991 ft | 410 kts | 220° |
| 2026-05-04 10:20 | 53.31106 | 9.66392 | 35988 ft | 410 kts | 221° |
| 2026-05-04 10:20 | 53.26620 | 9.60534 | 35986 ft | 411 kts | 221° |
| 2026-05-04 10:21 | 53.22123 | 9.54675 | 35994 ft | 411 kts | 220° |
| 2026-05-04 10:21 | 53.17608 | 9.48815 | 35988 ft | 410 kts | 220° |
| 2026-05-04 10:22 | 53.10893 | 9.40122 | 35997 ft | 411 kts | 220° |
| 2026-05-04 10:23 | 53.06364 | 9.34282 | 35986 ft | 411 kts | 220° |
| 2026-05-04 10:25 | 52.88314 | 9.11161 | 35961 ft | 412 kts | 220° |
| 2026-05-04 10:25 | 52.83768 | 9.05372 | 35962 ft | 411 kts | 220° |
| 2026-05-04 10:26 | 52.79186 | 8.99560 | 35961 ft | 411 kts | 220° |
| 2026-05-04 10:26 | 52.74641 | 8.93809 | 35961 ft | 411 kts | 220° |
| 2026-05-04 10:27 | 52.70097 | 8.88074 | 35960 ft | 411 kts | 220° |
| 2026-05-04 10:27 | 52.65537 | 8.82333 | 35962 ft | 410 kts | 220° |
| 2026-05-04 10:28 | 52.61010 | 8.76649 | 35965 ft | 409 kts | 220° |
| 2026-05-04 10:28 | 52.56494 | 8.70997 | 35967 ft | 409 kts | 220° |
| 2026-05-04 10:29 | 52.51949 | 8.65322 | 35966 ft | 408 kts | 220° |
| 2026-05-04 10:29 | 52.47431 | 8.59693 | 35965 ft | 409 kts | 220° |
| 2026-05-04 10:30 | 52.42912 | 8.54087 | 35966 ft | 409 kts | 220° |
| 2026-05-04 10:30 | 52.38358 | 8.48449 | 35965 ft | 409 kts | 220° |
| 2026-05-04 10:31 | 52.33807 | 8.42830 | 35967 ft | 409 kts | 220° |
| 2026-05-04 10:32 | 52.18028 | 8.23448 | 35960 ft | 409 kts | 219° |
| 2026-05-04 10:33 | 52.13466 | 8.17879 | 35960 ft | 408 kts | 219° |
| 2026-05-04 10:33 | 52.08942 | 8.12369 | 35962 ft | 409 kts | 219° |
| 2026-05-04 10:34 | 52.04376 | 8.06825 | 35945 ft | 409 kts | 219° |
| 2026-05-04 10:34 | 51.99799 | 8.01277 | 35958 ft | 409 kts | 219° |
| 2026-05-04 10:35 | 51.95233 | 7.95759 | 35967 ft | 408 kts | 219° |
| 2026-05-04 10:35 | 51.90693 | 7.90288 | 35961 ft | 408 kts | 219° |
| 2026-05-04 10:36 | 51.86128 | 7.84801 | 35960 ft | 408 kts | 219° |
| 2026-05-04 10:36 | 51.81555 | 7.79317 | 35959 ft | 408 kts | 219° |
| 2026-05-04 10:37 | 51.76971 | 7.73836 | 35956 ft | 408 kts | 219° |
| 2026-05-04 10:37 | 51.72395 | 7.68379 | 35952 ft | 408 kts | 219° |
| 2026-05-04 10:39 | 51.56571 | 7.49618 | 35958 ft | 408 kts | 219° |
| 2026-05-04 10:40 | 51.52177 | 7.44438 | 35962 ft | 407 kts | 219° |
| 2026-05-04 10:40 | 51.47811 | 7.38659 | 35962 ft | 406 kts | 224° |
| 2026-05-04 10:41 | 51.43625 | 7.32522 | 35957 ft | 406 kts | 223° |
| 2026-05-04 10:41 | 51.39457 | 7.26443 | 35953 ft | 406 kts | 223° |
| 2026-05-04 10:42 | 51.35247 | 7.20332 | 35947 ft | 406 kts | 223° |
| 2026-05-04 10:42 | 51.31087 | 7.14319 | 35951 ft | 405 kts | 223° |
| 2026-05-04 10:43 | 51.26925 | 7.08326 | 35950 ft | 405 kts | 223° |
| 2026-05-04 10:45 | 51.10227 | 6.84429 | 35966 ft | 405 kts | 223° |
| 2026-05-04 10:45 | 51.06128 | 6.78600 | 35968 ft | 406 kts | 223° |
| 2026-05-04 10:46 | 51.01900 | 6.72601 | 35968 ft | 405 kts | 223° |
| 2026-05-04 10:46 | 50.97715 | 6.66677 | 35964 ft | 405 kts | 222° |
| 2026-05-04 10:47 | 50.93479 | 6.60699 | 35967 ft | 405 kts | 222° |
| 2026-05-04 10:47 | 50.89381 | 6.54929 | 35969 ft | 404 kts | 222° |
| 2026-05-04 10:49 | 50.73247 | 6.32296 | 35969 ft | 405 kts | 221° |
| 2026-05-04 10:50 | 50.69115 | 6.26528 | 35972 ft | 405 kts | 221° |
| 2026-05-04 10:52 | 50.52143 | 6.02991 | 35969 ft | 405 kts | 221° |
| 2026-05-04 10:52 | 50.47924 | 5.97178 | 35959 ft | 406 kts | 221° |
| 2026-05-04 10:54 | 50.30932 | 5.73907 | 35970 ft | 406 kts | 221° |
| 2026-05-04 10:56 | 50.13901 | 5.50805 | 35967 ft | 407 kts | 221° |
| 2026-05-04 10:57 | 50.09673 | 5.45105 | 35966 ft | 406 kts | 221° |
| 2026-05-04 10:57 | 50.05780 | 5.38704 | 35964 ft | 409 kts | 233° |
| 2026-05-04 10:58 | 50.03016 | 5.30995 | 35966 ft | 412 kts | 240° |
| 2026-05-04 10:58 | 50.00477 | 5.23012 | 35964 ft | 411 kts | 241° |
| 2026-05-04 10:59 | 49.97939 | 5.15068 | 35960 ft | 412 kts | 240° |
| 2026-05-04 10:59 | 49.95380 | 5.07108 | 35962 ft | 413 kts | 240° |
| 2026-05-04 11:00 | 49.92807 | 4.99141 | 35961 ft | 413 kts | 240° |
| 2026-05-04 11:01 | 49.83978 | 4.71498 | 34220 ft | 406 kts | 240° |
| 2026-05-04 11:02 | 49.82698 | 4.67576 | 33478 ft | 406 kts | 240° |
| 2026-05-04 11:02 | 49.81428 | 4.63684 | 32708 ft | 407 kts | 239° |
| 2026-05-04 11:05 | 49.63979 | 4.10879 | 24278 ft | 373 kts | 240° |
| 2026-05-04 11:06 | 49.62799 | 4.07348 | 23770 ft | 371 kts | 240° |
| 2026-05-04 11:06 | 49.61613 | 4.03802 | 23281 ft | 368 kts | 240° |
| 2026-05-04 11:06 | 49.60459 | 4.00359 | 22796 ft | 367 kts | 240° |
| 2026-05-04 11:06 | 49.59290 | 3.96873 | 22300 ft | 366 kts | 240° |
| 2026-05-04 11:08 | 49.51205 | 3.72906 | 18873 ft | 358 kts | 241° |
| 2026-05-04 11:10 | 49.43308 | 3.49266 | 15489 ft | 356 kts | 243° |
| 2026-05-04 11:12 | 49.36230 | 3.23762 | 14772 ft | 375 kts | 248° |
| 2026-05-04 11:12 | 49.35239 | 3.20076 | 14494 ft | 373 kts | 248° |
| 2026-05-04 11:12 | 49.34265 | 3.16458 | 14220 ft | 372 kts | 248° |
| 2026-05-04 11:12 | 49.33277 | 3.12807 | 13950 ft | 371 kts | 248° |
| 2026-05-04 11:13 | 49.32288 | 3.09153 | 13677 ft | 370 kts | 248° |
| 2026-05-04 11:13 | 49.31310 | 3.05541 | 13416 ft | 368 kts | 248° |
| 2026-05-04 11:13 | 49.30332 | 3.01930 | 13192 ft | 367 kts | 248° |
| 2026-05-04 11:13 | 49.29360 | 2.98346 | 12964 ft | 366 kts | 248° |
| 2026-05-04 11:16 | 49.19657 | 2.62913 | 11734 ft | 351 kts | 248° |
| 2026-05-04 11:16 | 49.18734 | 2.59524 | 11374 ft | 343 kts | 250° |
| 2026-05-04 11:16 | 49.18136 | 2.56085 | 11135 ft | 324 kts | 262° |
| 2026-05-04 11:17 | 49.17963 | 2.52762 | 10907 ft | 304 kts | 268° |
| 2026-05-04 11:17 | 49.17911 | 2.49612 | 10626 ft | 296 kts | 269° |
| 2026-05-04 11:19 | 49.17566 | 2.28120 | 7959 ft | 284 kts | 269° |
| 2026-05-04 11:19 | 49.17530 | 2.25137 | 7634 ft | 282 kts | 269° |
| 2026-05-04 11:19 | 49.17374 | 2.22145 | 7292 ft | 282 kts | 258° |
| 2026-05-04 11:19 | 49.16870 | 2.19271 | 6921 ft | 281 kts | 253° |
| 2026-05-04 11:20 | 49.16272 | 2.16441 | 6550 ft | 280 kts | 252° |
| 2026-05-04 11:20 | 49.15453 | 2.13785 | 6162 ft | 279 kts | 232° |
| 2026-05-04 11:20 | 49.14128 | 2.11619 | 5795 ft | 278 kts | 223° |
| 2026-05-04 11:20 | 49.12726 | 2.09641 | 5425 ft | 277 kts | 222° |
| 2026-05-04 11:22 | 49.01935 | 2.06829 | 4044 ft | 232 kts | 134° |
| 2026-05-04 11:22 | 49.00852 | 2.08658 | 3955 ft | 230 kts | 118° |
| 2026-05-04 11:23 | 49.00315 | 2.10916 | 3962 ft | 229 kts | 97° |
| 2026-05-04 11:23 | 49.00251 | 2.13307 | 3962 ft | 228 kts | 84° |
| 2026-05-04 11:24 | 49.01154 | 2.26715 | 3626 ft | 197 kts | 84° |
| 2026-05-04 11:25 | 49.01256 | 2.28800 | 3365 ft | 197 kts | 84° |
| 2026-05-04 11:25 | 49.01356 | 2.30868 | 3087 ft | 197 kts | 85° |
| 2026-05-04 11:25 | 49.01453 | 2.32869 | 2915 ft | 188 kts | 84° |
| 2026-05-04 11:26 | 49.01623 | 2.36645 | 2386 ft | 192 kts | 85° |
| 2026-05-04 11:27 | 49.02250 | 2.48355 | 940 ft | 147 kts | 85° |
| 2026-05-04 11:28 | 49.02335 | 2.49885 | 726 ft | 143 kts | 84° |
| 2026-05-04 11:28 | 49.02419 | 2.51403 | 552 ft | 145 kts | 85° |
| 2026-05-04 11:28 | 49.02497 | 2.52952 | 400 ft | 143 kts | 84° |
| 2026-05-04 11:28 | 49.02575 | 2.54402 | 406 ft | 149 kts | 84° |
| 2026-05-04 11:29 | 49.02670 | 2.56007 | 1114 ft | 156 kts | 85° |
| 2026-05-04 11:29 | 49.02750 | 2.57609 | 1838 ft | 155 kts | 85° |
| 2026-05-04 11:29 | 49.02844 | 2.59204 | 2509 ft | 153 kts | 73° |
| 2026-05-04 11:29 | 49.03278 | 2.60653 | 3164 ft | 152 kts | 60° |
| 2026-05-04 11:31 | 49.09842 | 2.70050 | 3964 ft | 251 kts | 356° |
| 2026-05-04 11:33 | 49.19141 | 2.59204 | 3956 ft | 258 kts | 277° |
| 2026-05-04 11:33 | 49.19115 | 2.56459 | 3955 ft | 259 kts | 265° |
| 2026-05-04 11:33 | 49.18881 | 2.53742 | 3951 ft | 259 kts | 263° |
| 2026-05-04 11:34 | 49.18610 | 2.51021 | 3952 ft | 259 kts | 262° |
| 2026-05-04 11:34 | 49.18336 | 2.48328 | 3953 ft | 259 kts | 262° |
| 2026-05-04 11:34 | 49.18058 | 2.45605 | 3951 ft | 259 kts | 262° |
| 2026-05-04 11:34 | 49.17781 | 2.42880 | 3951 ft | 259 kts | 262° |
| 2026-05-04 11:35 | 49.17506 | 2.40187 | 3952 ft | 259 kts | 262° |
| 2026-05-04 11:35 | 49.17228 | 2.37440 | 3949 ft | 259 kts | 262° |
| 2026-05-04 11:35 | 49.16960 | 2.34803 | 3950 ft | 259 kts | 261° |
| 2026-05-04 11:35 | 49.16676 | 2.32001 | 3951 ft | 260 kts | 261° |
| 2026-05-04 11:36 | 49.16308 | 2.29314 | 3945 ft | 260 kts | 250° |
| 2026-05-04 11:36 | 49.15561 | 2.26781 | 3952 ft | 261 kts | 243° |
| 2026-05-04 11:36 | 49.14715 | 2.24328 | 3951 ft | 261 kts | 242° |
| 2026-05-04 11:36 | 49.13862 | 2.21916 | 3948 ft | 261 kts | 242° |
| 2026-05-04 11:37 | 49.12992 | 2.19467 | 3950 ft | 261 kts | 242° |
| 2026-05-04 11:37 | 49.12138 | 2.17067 | 3950 ft | 261 kts | 242° |
| 2026-05-04 11:37 | 49.11270 | 2.14630 | 3950 ft | 262 kts | 242° |
| 2026-05-04 11:37 | 49.10389 | 2.12177 | 3950 ft | 262 kts | 238° |
| 2026-05-04 11:38 | 49.09175 | 2.10171 | 3940 ft | 261 kts | 211° |
| 2026-05-04 11:38 | 49.07494 | 2.09246 | 3954 ft | 259 kts | 189° |
| 2026-05-04 11:38 | 49.05694 | 2.08887 | 3953 ft | 259 kts | 185° |
| 2026-05-04 11:38 | 49.03919 | 2.08697 | 3947 ft | 256 kts | 175° |
| 2026-05-04 11:39 | 49.02270 | 2.09432 | 3939 ft | 237 kts | 148° |
| 2026-05-04 11:39 | 49.01100 | 2.11076 | 3936 ft | 230 kts | 118° |
| 2026-05-04 11:40 | 49.01064 | 2.24855 | 3841 ft | 198 kts | 84° |
| 2026-05-04 11:41 | 49.01172 | 2.26923 | 3597 ft | 197 kts | 84° |
| 2026-05-04 11:41 | 49.01275 | 2.29007 | 3340 ft | 196 kts | 85° |
| 2026-05-04 11:41 | 49.01370 | 2.31003 | 3173 ft | 187 kts | 85° |
| 2026-05-04 11:41 | 49.01466 | 2.32976 | 2896 ft | 184 kts | 84° |
| 2026-05-04 11:42 | 49.01560 | 2.34878 | 2636 ft | 181 kts | 84° |
| 2026-05-04 11:42 | 49.01656 | 2.36804 | 2381 ft | 181 kts | 84° |
| 2026-05-04 11:42 | 49.01749 | 2.38627 | 2128 ft | 169 kts | 84° |
| 2026-05-04 11:42 | 49.01836 | 2.40326 | 1931 ft | 153 kts | 85° |
| 2026-05-04 11:43 | 49.01915 | 2.41890 | 1688 ft | 141 kts | 84° |
| 2026-05-04 11:43 | 49.01992 | 2.43335 | 1496 ft | 137 kts | 85° |
| 2026-05-04 11:43 | 49.02071 | 2.44763 | 1327 ft | 136 kts | 85° |
| 2026-05-04 11:43 | 49.02147 | 2.46207 | 1169 ft | 136 kts | 85° |
| 2026-05-04 11:44 | 49.02218 | 2.47638 | 996 ft | 135 kts | 85° |
| 2026-05-04 11:44 | 49.02289 | 2.49058 | 820 ft | 135 kts | 85° |
| 2026-05-04 11:44 | 49.02361 | 2.50475 | 635 ft | 134 kts | 84° |
| 2026-05-04 11:44 | 49.02439 | 2.51884 | 484 ft | 133 kts | 84° |
| 2026-05-04 11:45 | 49.02515 | 2.53254 | 385 ft | 119 kts | 86° |
| 2026-05-04 11:45 | 49.02566 | 2.54252 | 385 ft | 70 kts | 85° |
| 2026-05-04 11:45 | 49.02599 | 2.54868 | 385 ft | 46 kts | 84° |
| 2026-05-04 11:45 | 49.02575 | 2.55251 | 386 ft | 31 kts | 109° |
| 2026-05-04 11:46 | 49.02497 | 2.55517 | 387 ft | 20 kts | 118° |
| 2026-05-04 11:46 | 49.02412 | 2.55614 | 387 ft | 15 kts | 178° |
| 2026-05-04 11:46 | 49.02301 | 2.55626 | 385 ft | 16 kts | 174° |
| 2026-05-04 11:46 | 49.02182 | 2.55643 | 384 ft | 18 kts | 174° |
| 2026-05-04 11:47 | 49.02087 | 2.55696 | 382 ft | 15 kts | 126° |
| 2026-05-04 11:47 | 49.02078 | 2.55852 | 382 ft | 15 kts | 86° |
| 2026-05-04 11:47 | 49.02086 | 2.56012 | 383 ft | 15 kts | 84° |
| 2026-05-04 11:47 | 49.02096 | 2.56173 | 383 ft | 14 kts | 84° |
| 2026-05-04 11:48 | 49.02056 | 2.56316 | 382 ft | 16 kts | 130° |
| 2026-05-04 11:48 | 49.02022 | 2.56474 | 381 ft | 16 kts | 85° |
| 2026-05-04 11:48 | 49.02031 | 2.56659 | 381 ft | 18 kts | 85° |
| 2026-05-04 11:48 | 49.02043 | 2.56862 | 379 ft | 20 kts | 84° |
| 2026-05-04 11:49 | 49.02057 | 2.57102 | 378 ft | 23 kts | 85° |
| 2026-05-04 11:49 | 49.02070 | 2.57362 | 376 ft | 25 kts | 84° |
| 2026-05-04 11:49 | 49.02084 | 2.57629 | 375 ft | 20 kts | 86° |
| 2026-05-04 11:49 | 49.02076 | 2.57822 | 373 ft | 18 kts | 101° |
| 2026-05-04 11:50 | 49.02023 | 2.57991 | 371 ft | 17 kts | 130° |
| 2026-05-04 11:50 | 49.01920 | 2.58096 | 369 ft | 18 kts | 158° |
| 2026-05-04 11:50 | 49.01794 | 2.58130 | 366 ft | 18 kts | 175° |
| 2026-05-04 11:50 | 49.01659 | 2.58144 | 362 ft | 20 kts | 175° |
| 2026-05-04 11:51 | 49.01516 | 2.58161 | 358 ft | 20 kts | 174° |
| 2026-05-04 11:51 | 49.01372 | 2.58179 | 355 ft | 20 kts | 175° |
| 2026-05-04 11:51 | 49.01226 | 2.58197 | 352 ft | 21 kts | 174° |
| 2026-05-04 11:51 | 49.01083 | 2.58218 | 351 ft | 18 kts | 174° |
| 2026-05-04 11:52 | 49.00966 | 2.58221 | 349 ft | 16 kts | 191° |
| 2026-05-04 11:52 | 49.00907 | 2.58102 | 351 ft | 14 kts | 264° |
| 2026-05-04 11:52 | 49.00899 | 2.57951 | 353 ft | 14 kts | 265° |
| 2026-05-04 11:52 | 49.00891 | 2.57801 | 355 ft | 14 kts | 265° |
| 2026-05-04 11:53 | 49.00884 | 2.57653 | 356 ft | 13 kts | 262° |
| 2026-05-04 11:53 | 49.00856 | 2.57581 | 357 ft | 12 kts | 214° |
| 2026-05-04 11:53 | 49.00782 | 2.57475 | 357 ft | 12 kts | 263° |
| 2026-05-04 11:53 | 49.00777 | 2.57358 | 358 ft | 8 kts | 265° |
| 2026-05-04 11:55 | 49.00703 | 2.57356 | 358 ft | 0 kts | 158° |